TimeEST,TemperatureF,Dew PointF,Humidity,Sea Level PressureIn,VisibilityMPH,Wind Direction,Wind SpeedMPH,Gust SpeedMPH,PrecipitationIn,Events,Conditions,WindDirDegrees,DateUTC
12:35 AM,19.4,15.8,86,29.61,2.0,WNW,10.4,23.0,0.00,Snow,Light Snow,290,2001-01-01 05:35:00
12:44 AM,19.4,15.8,86,29.61,1.5,West,12.7,19.6,0.00,Snow,Light Snow,280,2001-01-01 05:44:00
12:52 AM,19.9,16.0,85,29.67,1.2,West,8.1,-,0.00,Snow,Light Snow,280,2001-01-01 05:52:00
12:59 AM,19.4,15.8,86,29.62,1.8,WNW,8.1,17.3,0.00,Snow,Light Snow,290,2001-01-01 05:59:00
1:07 AM,19.4,15.8,86,29.63,2.0,West,10.4,20.7,0.00,Snow,Light Snow,280,2001-01-01 06:07:00
1:18 AM,19.4,14.0,80,29.63,4.0,WNW,10.4,17.3,0.00,Snow,Light Snow,300,2001-01-01 06:18:00
1:52 AM,19.0,12.9,77,29.71,4.0,WNW,12.7,23.0,0.00,Snow,Light Snow,290,2001-01-01 06:52:00
2:52 AM,19.0,12.9,77,29.75,3.0,WNW,8.1,18.4,0.00,Snow,Light Snow,290,2001-01-01 07:52:00
3:00 AM,19.4,14.0,80,29.70,2.5,West,13.8,19.6,0.00,Snow,Light Snow,280,2001-01-01 08:00:00
3:37 AM,17.6,12.2,79,29.72,3.0,West,13.8,-,0.00,Snow,Light Snow,280,2001-01-01 08:37:00
3:52 AM,17.1,12.0,81,29.78,4.0,West,11.5,23.0,0.00,Snow,Light Snow,280,2001-01-01 08:52:00
4:36 AM,17.6,12.2,79,29.75,3.0,West,12.7,20.7,0.00,Snow,Light Snow,280,2001-01-01 09:36:00
4:52 AM,17.1,10.9,77,29.82,4.0,West,18.4,23.0,0.00,Snow,Light Snow,280,2001-01-01 09:52:00
5:09 AM,15.8,10.4,79,29.77,3.0,West,16.1,24.2,0.00,Snow,Light Snow,280,2001-01-01 10:09:00
5:29 AM,15.8,10.4,79,29.79,4.0,WNW,13.8,26.5,0.00,Snow,Light Snow,290,2001-01-01 10:29:00
5:52 AM,16.0,10.0,77,29.87,3.0,West,11.5,21.9,0.00,Snow,Light Snow,280,2001-01-01 10:52:00
6:01 AM,15.8,10.4,79,29.82,2.5,WNW,12.7,20.7,0.00,Snow,Light Snow,300,2001-01-01 11:01:00
6:10 AM,15.8,10.4,79,29.83,3.0,WNW,12.7,19.6,0.00,Snow,Light Snow,290,2001-01-01 11:10:00
6:45 AM,15.8,10.4,79,29.85,2.5,Variable,6.9,-,0.00,Snow,Light Snow,0,2001-01-01 11:45:00
6:52 AM,15.1,10.0,80,29.92,2.5,West,10.4,-,0.00,Snow,Light Snow,270,2001-01-01 11:52:00
7:35 AM,15.8,8.6,73,29.89,1.2,West,11.5,-,0.00,Snow,Light Snow,280,2001-01-01 12:35:00
7:52 AM,15.1,10.0,80,29.97,1.2,West,8.1,-,0.00,Snow,Light Snow,260,2001-01-01 12:52:00
8:13 AM,15.8,8.6,73,29.92,1.0,West,9.2,-,0.00,Snow,Light Snow,270,2001-01-01 13:13:00
8:52 AM,14.0,9.0,80,30.01,2.0,West,11.5,17.3,0.00,Snow,Light Snow,270,2001-01-01 13:52:00
9:07 AM,14.0,8.6,79,29.96,1.5,West,10.4,17.3,0.00,Snow,Light Snow,280,2001-01-01 14:07:00
9:13 AM,14.0,8.6,79,29.97,1.2,West,10.4,17.3,0.00,Snow,Light Snow,280,2001-01-01 14:13:00
9:52 AM,15.1,9.0,77,30.04,1.0,West,11.5,17.3,0.00,Snow,Light Snow,280,2001-01-01 14:52:00
10:00 AM,15.8,8.6,73,29.98,1.0,West,8.1,16.1,0.00,Snow,Light Snow,280,2001-01-01 15:00:00
10:14 AM,15.8,8.6,73,29.99,1.5,Variable,6.9,-,0.00,Snow,Light Snow,0,2001-01-01 15:14:00
10:29 AM,15.8,8.6,73,29.99,2.5,West,8.1,-,0.00,Snow,Light Snow,280,2001-01-01 15:29:00
10:36 AM,15.8,8.6,73,29.99,5.0,WNW,9.2,-,0.00,Snow,Light Snow,300,2001-01-01 15:36:00
10:52 AM,15.1,9.0,77,30.06,8.0,West,10.4,-,0.00,Snow,Light Snow,270,2001-01-01 15:52:00
11:33 AM,15.8,8.6,73,29.98,2.5,WNW,13.8,20.7,0.00,Snow,Light Snow,290,2001-01-01 16:33:00
11:52 AM,15.1,9.0,77,30.06,2.5,WNW,9.2,16.1,0.00,Snow,Light Snow,290,2001-01-01 16:52:00
12:03 PM,15.8,8.6,73,29.99,3.0,West,11.5,17.3,0.00,Snow,Light Snow,280,2001-01-01 17:03:00
12:23 PM,15.8,8.6,73,29.99,2.0,WNW,10.4,18.4,0.00,Snow,Light Snow,290,2001-01-01 17:23:00
12:52 PM,16.0,10.0,77,30.06,3.0,WNW,10.4,16.1,0.00,Snow,Light Snow,290,2001-01-01 17:52:00
1:52 PM,16.0,10.0,77,30.06,6.0,West,5.8,-,0.00,Snow,Light Snow,280,2001-01-01 18:52:00
2:52 PM,17.1,10.0,74,30.08,6.0,NW,5.8,-,0.00,Snow,Light Snow,320,2001-01-01 19:52:00
3:52 PM,16.0,10.0,77,30.11,10.0,Variable,6.9,-,0.00,,Overcast,0,2001-01-01 20:52:00
4:52 PM,14.0,9.0,80,30.14,10.0,NW,8.1,-,N/A,,Overcast,310,2001-01-01 21:52:00
5:52 PM,14.0,9.0,80,30.17,7.0,West,6.9,-,0.00,Snow,Light Snow,270,2001-01-01 22:52:00
6:52 PM,12.9,8.1,81,30.19,7.0,WNW,5.8,-,0.00,Snow,Light Snow,290,2001-01-01 23:52:00
7:52 PM,12.9,3.9,67,30.20,10.0,NNW,4.6,-,N/A,,Overcast,330,2001-01-02 00:52:00
8:52 PM,12.9,8.1,81,30.21,10.0,Variable,5.8,-,N/A,,Overcast,0,2001-01-02 01:52:00
9:52 PM,7.0,3.9,87,30.21,10.0,Calm,Calm,-,N/A,,Mostly Cloudy,0,2001-01-02 02:52:00
10:17 PM,6.8,3.2,85,30.14,10.0,NNE,3.5,-,N/A,,Scattered Clouds,30,2001-01-02 03:17:00
10:24 PM,8.6,5.0,85,30.14,10.0,Calm,Calm,-,N/A,,Mostly Cloudy,0,2001-01-02 03:24:00
10:52 PM,7.0,3.9,87,30.21,10.0,Calm,Calm,-,N/A,,Overcast,0,2001-01-02 03:52:00
11:52 PM,9.0,6.1,88,30.21,10.0,Calm,Calm,-,N/A,,Overcast,0,2001-01-02 04:52:00